sensor_id;sensor_type;location;lat;lon;timestamp;temperature;humidity
3770;DHT22;1900;48.890;9.190;2023-07-13T00:01:48;27.90;44.80
3770;DHT22;1900;48.890;9.190;2023-07-13T00:04:16;27.90;44.80
3770;DHT22;1900;48.890;9.190;2023-07-13T00:06:41;27.80;44.80
3770;DHT22;1900;48.890;9.190;2023-07-13T00:09:12;27.80;44.80
3770;DHT22;1900;48.890;9.190;2023-07-13T00:11:39;27.80;44.80
3770;DHT22;1900;48.890;9.190;2023-07-13T00:14:05;27.70;44.60
3770;DHT22;1900;48.890;9.190;2023-07-13T00:16:31;27.70;44.60
3770;DHT22;1900;48.890;9.190;2023-07-13T00:18:56;27.60;44.70
3770;DHT22;1900;48.890;9.190;2023-07-13T00:21:22;27.60;44.70
3770;DHT22;1900;48.890;9.190;2023-07-13T00:23:48;27.60;44.80
3770;DHT22;1900;48.890;9.190;2023-07-13T00:26:14;27.50;44.70
3770;DHT22;1900;48.890;9.190;2023-07-13T00:28:40;27.50;44.70
3770;DHT22;1900;48.890;9.190;2023-07-13T00:31:08;27.50;44.70
3770;DHT22;1900;48.890;9.190;2023-07-13T00:33:34;27.50;44.70
3770;DHT22;1900;48.890;9.190;2023-07-13T00:36:00;27.40;44.70
3770;DHT22;1900;48.890;9.190;2023-07-13T00:38:26;27.40;44.60
3770;DHT22;1900;48.890;9.190;2023-07-13T00:40:52;27.30;44.50
3770;DHT22;1900;48.890;9.190;2023-07-13T00:43:20;27.30;44.50
3770;DHT22;1900;48.890;9.190;2023-07-13T00:48:14;27.20;44.50
3770;DHT22;1900;48.890;9.190;2023-07-13T00:50:41;27.10;44.50
3770;DHT22;1900;48.890;9.190;2023-07-13T00:53:09;27.10;44.60
3770;DHT22;1900;48.890;9.190;2023-07-13T00:55:35;27.00;44.60
3770;DHT22;1900;48.890;9.190;2023-07-13T00:58:02;27.00;44.60
3770;DHT22;1900;48.890;9.190;2023-07-13T01:00:29;27.00;44.70
3770;DHT22;1900;48.890;9.190;2023-07-13T01:02:55;27.00;44.70
3770;DHT22;1900;48.890;9.190;2023-07-13T01:05:24;26.90;44.60
3770;DHT22;1900;48.890;9.190;2023-07-13T01:07:51;26.90;44.60
3770;DHT22;1900;48.890;9.190;2023-07-13T01:10:21;26.80;44.60
3770;DHT22;1900;48.890;9.190;2023-07-13T01:12:47;26.90;44.70
3770;DHT22;1900;48.890;9.190;2023-07-13T01:18:03;26.80;44.60
3770;DHT22;1900;48.890;9.190;2023-07-13T01:20:29;26.70;44.60
3770;DHT22;1900;48.890;9.190;2023-07-13T01:22:54;26.70;44.60
3770;DHT22;1900;48.890;9.190;2023-07-13T01:25:21;26.70;44.60
3770;DHT22;1900;48.890;9.190;2023-07-13T01:27:47;26.70;44.70
3770;DHT22;1900;48.890;9.190;2023-07-13T01:30:13;26.60;44.50
3770;DHT22;1900;48.890;9.190;2023-07-13T01:32:38;26.60;44.50
3770;DHT22;1900;48.890;9.190;2023-07-13T01:35:07;26.50;44.40
3770;DHT22;1900;48.890;9.190;2023-07-13T01:37:33;26.50;44.30
3770;DHT22;1900;48.890;9.190;2023-07-13T01:40:02;26.40;44.30
3770;DHT22;1900;48.890;9.190;2023-07-13T01:42:30;26.40;44.40
3770;DHT22;1900;48.890;9.190;2023-07-13T01:44:56;26.30;44.40
3770;DHT22;1900;48.890;9.190;2023-07-13T01:47:23;26.30;44.40
3770;DHT22;1900;48.890;9.190;2023-07-13T01:49:49;26.20;44.30
3770;DHT22;1900;48.890;9.190;2023-07-13T01:52:17;26.10;44.40
3770;DHT22;1900;48.890;9.190;2023-07-13T01:54:43;26.10;44.40
3770;DHT22;1900;48.890;9.190;2023-07-13T01:57:08;26.10;44.50
3770;DHT22;1900;48.890;9.190;2023-07-13T01:59:34;26.00;44.50
3770;DHT22;1900;48.890;9.190;2023-07-13T02:02:00;26.00;44.60
3770;DHT22;1900;48.890;9.190;2023-07-13T02:04:25;26.00;44.70
3770;DHT22;1900;48.890;9.190;2023-07-13T02:06:51;26.00;44.70
3770;DHT22;1900;48.890;9.190;2023-07-13T02:09:17;26.00;44.70
3770;DHT22;1900;48.890;9.190;2023-07-13T02:11:43;26.00;44.70
3770;DHT22;1900;48.890;9.190;2023-07-13T02:14:08;26.00;44.70
3770;DHT22;1900;48.890;9.190;2023-07-13T02:16:34;26.00;44.70
3770;DHT22;1900;48.890;9.190;2023-07-13T02:19:00;26.00;44.70
3770;DHT22;1900;48.890;9.190;2023-07-13T02:21:26;26.00;44.70
3770;DHT22;1900;48.890;9.190;2023-07-13T02:23:52;26.00;45.30
3770;DHT22;1900;48.890;9.190;2023-07-13T02:26:18;25.90;44.70
3770;DHT22;1900;48.890;9.190;2023-07-13T02:28:44;25.90;44.80
3770;DHT22;1900;48.890;9.190;2023-07-13T02:31:14;25.90;44.80
3770;DHT22;1900;48.890;9.190;2023-07-13T02:33:40;25.90;44.80
3770;DHT22;1900;48.890;9.190;2023-07-13T02:36:07;25.90;44.80
3770;DHT22;1900;48.890;9.190;2023-07-13T02:38:33;25.90;44.80
3770;DHT22;1900;48.890;9.190;2023-07-13T02:41:02;25.90;44.90
3770;DHT22;1900;48.890;9.190;2023-07-13T02:43:28;25.90;44.90
3770;DHT22;1900;48.890;9.190;2023-07-13T02:45:53;25.90;44.90
3770;DHT22;1900;48.890;9.190;2023-07-13T02:48:19;25.90;44.80
3770;DHT22;1900;48.890;9.190;2023-07-13T02:50:45;25.80;44.80
3770;DHT22;1900;48.890;9.190;2023-07-13T02:53:11;25.80;44.80
3770;DHT22;1900;48.890;9.190;2023-07-13T02:55:36;25.80;44.80
3770;DHT22;1900;48.890;9.190;2023-07-13T02:58:02;25.80;44.80
3770;DHT22;1900;48.890;9.190;2023-07-13T03:00:28;25.80;44.80
3770;DHT22;1900;48.890;9.190;2023-07-13T03:02:54;25.70;44.70
3770;DHT22;1900;48.890;9.190;2023-07-13T03:05:23;25.70;44.70
3770;DHT22;1900;48.890;9.190;2023-07-13T03:07:49;25.70;44.70
3770;DHT22;1900;48.890;9.190;2023-07-13T03:10:15;25.60;44.70
3770;DHT22;1900;48.890;9.190;2023-07-13T03:12:46;25.60;44.70
3770;DHT22;1900;48.890;9.190;2023-07-13T03:15:20;25.60;44.70
3770;DHT22;1900;48.890;9.190;2023-07-13T03:17:47;25.50;44.70
3770;DHT22;1900;48.890;9.190;2023-07-13T03:20:13;25.50;44.70
3770;DHT22;1900;48.890;9.190;2023-07-13T03:22:39;25.50;44.80
3770;DHT22;1900;48.890;9.190;2023-07-13T03:25:05;25.50;44.70
3770;DHT22;1900;48.890;9.190;2023-07-13T03:27:31;25.40;44.80
3770;DHT22;1900;48.890;9.190;2023-07-13T03:29:57;25.40;44.80
3770;DHT22;1900;48.890;9.190;2023-07-13T03:32:23;25.40;44.80
3770;DHT22;1900;48.890;9.190;2023-07-13T03:34:48;25.40;44.90
3770;DHT22;1900;48.890;9.190;2023-07-13T03:37:15;25.40;44.90
3770;DHT22;1900;48.890;9.190;2023-07-13T03:39:40;25.40;45.00
3770;DHT22;1900;48.890;9.190;2023-07-13T03:42:07;25.40;45.00
3770;DHT22;1900;48.890;9.190;2023-07-13T03:44:33;25.40;45.10
3770;DHT22;1900;48.890;9.190;2023-07-13T03:46:59;25.40;45.10
3770;DHT22;1900;48.890;9.190;2023-07-13T03:49:24;25.40;45.10
3770;DHT22;1900;48.890;9.190;2023-07-13T03:51:50;25.40;45.10
3770;DHT22;1900;48.890;9.190;2023-07-13T03:54:16;25.40;45.10
3770;DHT22;1900;48.890;9.190;2023-07-13T03:56:42;25.40;45.20
3770;DHT22;1900;48.890;9.190;2023-07-13T03:59:09;25.40;45.20
3770;DHT22;1900;48.890;9.190;2023-07-13T04:01:34;25.40;45.20
3770;DHT22;1900;48.890;9.190;2023-07-13T04:04:00;25.40;45.20
3770;DHT22;1900;48.890;9.190;2023-07-13T04:06:29;25.40;45.20
3770;DHT22;1900;48.890;9.190;2023-07-13T04:08:58;25.40;45.30
3770;DHT22;1900;48.890;9.190;2023-07-13T04:11:27;25.40;45.20
3770;DHT22;1900;48.890;9.190;2023-07-13T04:13:54;25.40;45.30
3770;DHT22;1900;48.890;9.190;2023-07-13T04:16:20;25.40;45.20
3770;DHT22;1900;48.890;9.190;2023-07-13T04:18:48;25.40;45.20
3770;DHT22;1900;48.890;9.190;2023-07-13T04:21:14;25.40;45.20
3770;DHT22;1900;48.890;9.190;2023-07-13T04:23:40;25.40;45.10
3770;DHT22;1900;48.890;9.190;2023-07-13T04:26:06;25.40;45.10
3770;DHT22;1900;48.890;9.190;2023-07-13T04:28:33;25.40;45.20
3770;DHT22;1900;48.890;9.190;2023-07-13T04:30:59;25.40;45.20
3770;DHT22;1900;48.890;9.190;2023-07-13T04:33:25;25.40;45.20
3770;DHT22;1900;48.890;9.190;2023-07-13T04:35:52;25.40;45.20
3770;DHT22;1900;48.890;9.190;2023-07-13T04:38:27;25.30;45.20
3770;DHT22;1900;48.890;9.190;2023-07-13T04:40:55;25.30;45.20
3770;DHT22;1900;48.890;9.190;2023-07-13T04:43:22;25.30;45.20
3770;DHT22;1900;48.890;9.190;2023-07-13T04:45:48;25.30;45.20
3770;DHT22;1900;48.890;9.190;2023-07-13T04:48:13;25.30;45.20
3770;DHT22;1900;48.890;9.190;2023-07-13T04:50:39;25.30;45.20
3770;DHT22;1900;48.890;9.190;2023-07-13T04:53:05;25.30;45.20
3770;DHT22;1900;48.890;9.190;2023-07-13T04:55:32;25.30;45.30
3770;DHT22;1900;48.890;9.190;2023-07-13T04:57:58;25.30;45.20
3770;DHT22;1900;48.890;9.190;2023-07-13T05:00:25;25.20;45.20
3770;DHT22;1900;48.890;9.190;2023-07-13T05:02:50;25.20;45.20
3770;DHT22;1900;48.890;9.190;2023-07-13T05:05:17;25.20;45.20
3770;DHT22;1900;48.890;9.190;2023-07-13T05:07:42;25.30;45.30
3770;DHT22;1900;48.890;9.190;2023-07-13T05:10:09;25.20;45.20
3770;DHT22;1900;48.890;9.190;2023-07-13T05:12:34;25.20;45.30
3770;DHT22;1900;48.890;9.190;2023-07-13T05:15:01;25.20;45.20
3770;DHT22;1900;48.890;9.190;2023-07-13T05:17:27;25.20;45.80
3770;DHT22;1900;48.890;9.190;2023-07-13T05:19:52;25.20;45.30
3770;DHT22;1900;48.890;9.190;2023-07-13T05:22:18;25.20;45.40
3770;DHT22;1900;48.890;9.190;2023-07-13T05:24:44;25.30;45.60
3770;DHT22;1900;48.890;9.190;2023-07-13T05:27:09;25.30;45.60
3770;DHT22;1900;48.890;9.190;2023-07-13T05:29:35;25.30;45.60
3770;DHT22;1900;48.890;9.190;2023-07-13T05:32:01;25.30;45.60
3770;DHT22;1900;48.890;9.190;2023-07-13T05:34:26;25.30;45.60
3770;DHT22;1900;48.890;9.190;2023-07-13T05:36:52;25.30;45.60
3770;DHT22;1900;48.890;9.190;2023-07-13T05:39:18;25.30;45.60
3770;DHT22;1900;48.890;9.190;2023-07-13T05:41:44;25.30;45.60
3770;DHT22;1900;48.890;9.190;2023-07-13T05:44:10;25.30;45.60
3770;DHT22;1900;48.890;9.190;2023-07-13T05:46:36;25.40;45.60
3770;DHT22;1900;48.890;9.190;2023-07-13T05:49:01;25.40;45.70
3770;DHT22;1900;48.890;9.190;2023-07-13T05:51:29;25.40;45.70
3770;DHT22;1900;48.890;9.190;2023-07-13T05:53:55;25.40;45.70
3770;DHT22;1900;48.890;9.190;2023-07-13T05:56:20;25.40;45.60
3770;DHT22;1900;48.890;9.190;2023-07-13T05:58:48;25.40;45.70
3770;DHT22;1900;48.890;9.190;2023-07-13T06:01:15;25.40;45.70
3770;DHT22;1900;48.890;9.190;2023-07-13T06:03:41;25.40;45.80
3770;DHT22;1900;48.890;9.190;2023-07-13T06:06:09;25.40;45.80
3770;DHT22;1900;48.890;9.190;2023-07-13T06:08:35;25.50;45.80
3770;DHT22;1900;48.890;9.190;2023-07-13T06:11:18;25.50;45.90
3770;DHT22;1900;48.890;9.190;2023-07-13T06:13:44;25.50;45.90
3770;DHT22;1900;48.890;9.190;2023-07-13T06:16:11;25.50;45.90
3770;DHT22;1900;48.890;9.190;2023-07-13T06:18:37;25.50;45.90
3770;DHT22;1900;48.890;9.190;2023-07-13T06:21:11;25.60;46.00
3770;DHT22;1900;48.890;9.190;2023-07-13T06:23:37;25.60;46.00
3770;DHT22;1900;48.890;9.190;2023-07-13T06:26:04;25.60;45.90
3770;DHT22;1900;48.890;9.190;2023-07-13T06:28:31;25.60;45.90
3770;DHT22;1900;48.890;9.190;2023-07-13T06:31:00;25.60;45.90
3770;DHT22;1900;48.890;9.190;2023-07-13T06:33:27;25.70;46.00
3770;DHT22;1900;48.890;9.190;2023-07-13T06:35:53;25.70;46.00
3770;DHT22;1900;48.890;9.190;2023-07-13T06:38:20;25.70;46.00
3770;DHT22;1900;48.890;9.190;2023-07-13T06:40:46;25.70;46.00
3770;DHT22;1900;48.890;9.190;2023-07-13T06:43:12;25.70;46.00
3770;DHT22;1900;48.890;9.190;2023-07-13T06:45:43;25.80;46.10
3770;DHT22;1900;48.890;9.190;2023-07-13T06:48:11;25.80;46.10
3770;DHT22;1900;48.890;9.190;2023-07-13T06:50:37;25.80;46.10
3770;DHT22;1900;48.890;9.190;2023-07-13T06:53:02;25.90;46.20
3770;DHT22;1900;48.890;9.190;2023-07-13T06:55:28;25.90;46.10
3770;DHT22;1900;48.890;9.190;2023-07-13T06:57:54;25.90;46.10
3770;DHT22;1900;48.890;9.190;2023-07-13T07:00:20;25.90;46.10
3770;DHT22;1900;48.890;9.190;2023-07-13T07:02:45;25.90;46.10
3770;DHT22;1900;48.890;9.190;2023-07-13T07:05:11;26.00;46.10
3770;DHT22;1900;48.890;9.190;2023-07-13T07:07:37;26.00;46.10
3770;DHT22;1900;48.890;9.190;2023-07-13T07:10:03;26.00;46.10
3770;DHT22;1900;48.890;9.190;2023-07-13T07:12:29;26.00;46.10
3770;DHT22;1900;48.890;9.190;2023-07-13T07:14:55;26.10;46.10
3770;DHT22;1900;48.890;9.190;2023-07-13T07:17:20;26.10;46.10
3770;DHT22;1900;48.890;9.190;2023-07-13T07:19:46;26.10;46.10
3770;DHT22;1900;48.890;9.190;2023-07-13T07:22:12;26.10;46.00
3770;DHT22;1900;48.890;9.190;2023-07-13T07:24:37;26.10;46.50
3770;DHT22;1900;48.890;9.190;2023-07-13T07:27:03;26.10;46.00
3770;DHT22;1900;48.890;9.190;2023-07-13T07:29:29;26.20;46.00
3770;DHT22;1900;48.890;9.190;2023-07-13T07:31:55;26.20;46.00
3770;DHT22;1900;48.890;9.190;2023-07-13T07:34:21;26.20;46.10
3770;DHT22;1900;48.890;9.190;2023-07-13T07:36:46;26.20;46.10
3770;DHT22;1900;48.890;9.190;2023-07-13T07:39:12;26.20;46.10
3770;DHT22;1900;48.890;9.190;2023-07-13T07:41:38;26.30;46.20
3770;DHT22;1900;48.890;9.190;2023-07-13T07:44:04;26.30;46.30
3770;DHT22;1900;48.890;9.190;2023-07-13T07:46:30;26.40;46.30
3770;DHT22;1900;48.890;9.190;2023-07-13T07:48:56;26.40;46.20
3770;DHT22;1900;48.890;9.190;2023-07-13T07:51:22;26.50;46.30
3770;DHT22;1900;48.890;9.190;2023-07-13T07:53:48;26.50;46.30
3770;DHT22;1900;48.890;9.190;2023-07-13T07:56:14;26.60;46.30
3770;DHT22;1900;48.890;9.190;2023-07-13T07:58:42;26.60;46.80
3770;DHT22;1900;48.890;9.190;2023-07-13T08:01:08;26.60;46.30
3770;DHT22;1900;48.890;9.190;2023-07-13T08:03:34;26.70;46.40
3770;DHT22;1900;48.890;9.190;2023-07-13T08:06:00;26.70;46.30
3770;DHT22;1900;48.890;9.190;2023-07-13T08:08:25;26.80;46.30
3770;DHT22;1900;48.890;9.190;2023-07-13T08:10:51;26.80;46.30
3770;DHT22;1900;48.890;9.190;2023-07-13T08:13:17;26.90;46.40
3770;DHT22;1900;48.890;9.190;2023-07-13T08:15:43;27.00;46.40
3770;DHT22;1900;48.890;9.190;2023-07-13T08:18:09;27.00;46.30
3770;DHT22;1900;48.890;9.190;2023-07-13T08:20:38;27.10;46.30
3770;DHT22;1900;48.890;9.190;2023-07-13T08:23:05;27.20;46.40
3770;DHT22;1900;48.890;9.190;2023-07-13T08:25:31;27.20;46.50
3770;DHT22;1900;48.890;9.190;2023-07-13T08:27:57;27.30;46.60
3770;DHT22;1900;48.890;9.190;2023-07-13T08:30:22;27.40;46.40
3770;DHT22;1900;48.890;9.190;2023-07-13T08:32:48;27.40;46.10
3770;DHT22;1900;48.890;9.190;2023-07-13T08:35:15;27.50;45.80
3770;DHT22;1900;48.890;9.190;2023-07-13T08:37:41;27.50;45.70
3770;DHT22;1900;48.890;9.190;2023-07-13T08:40:10;27.50;45.90
3770;DHT22;1900;48.890;9.190;2023-07-13T08:42:44;27.60;46.00
3770;DHT22;1900;48.890;9.190;2023-07-13T08:48:23;27.70;46.30
3770;DHT22;1900;48.890;9.190;2023-07-13T08:53:49;27.90;46.40
3770;DHT22;1900;48.890;9.190;2023-07-13T08:56:23;28.00;46.50
3770;DHT22;1900;48.890;9.190;2023-07-13T08:59:03;28.10;46.60
3770;DHT22;1900;48.890;9.190;2023-07-13T09:05:01;28.30;46.30
3770;DHT22;1900;48.890;9.190;2023-07-13T09:15:40;28.60;46.10
3770;DHT22;1900;48.890;9.190;2023-07-13T09:23:23;28.80;47.00
3770;DHT22;1900;48.890;9.190;2023-07-13T09:25:54;28.80;46.20
3770;DHT22;1900;48.890;9.190;2023-07-13T09:28:26;28.90;46.40
3770;DHT22;1900;48.890;9.190;2023-07-13T09:33:24;29.10;46.20
3770;DHT22;1900;48.890;9.190;2023-07-13T09:35:55;29.20;46.30
3770;DHT22;1900;48.890;9.190;2023-07-13T09:38:22;29.20;46.40
3770;DHT22;1900;48.890;9.190;2023-07-13T09:41:03;29.30;46.50
3770;DHT22;1900;48.890;9.190;2023-07-13T09:43:30;29.40;45.90
3770;DHT22;1900;48.890;9.190;2023-07-13T09:45:56;29.50;45.70
3770;DHT22;1900;48.890;9.190;2023-07-13T09:48:22;29.50;45.80
3770;DHT22;1900;48.890;9.190;2023-07-13T09:50:54;29.60;45.80
3770;DHT22;1900;48.890;9.190;2023-07-13T09:53:21;29.60;45.80
3770;DHT22;1900;48.890;9.190;2023-07-13T09:55:49;29.70;46.00
3770;DHT22;1900;48.890;9.190;2023-07-13T10:00:42;29.80;45.60
3770;DHT22;1900;48.890;9.190;2023-07-13T10:03:23;29.90;45.50
3770;DHT22;1900;48.890;9.190;2023-07-13T10:05:51;30.00;46.00
3770;DHT22;1900;48.890;9.190;2023-07-13T10:11:39;30.10;45.40
3770;DHT22;1900;48.890;9.190;2023-07-13T10:13:44;30.10;45.10
3770;DHT22;1900;48.890;9.190;2023-07-13T10:16:11;30.20;45.60
3770;DHT22;1900;48.890;9.190;2023-07-13T10:18:46;30.20;45.70
3770;DHT22;1900;48.890;9.190;2023-07-13T10:21:20;30.30;45.70
3770;DHT22;1900;48.890;9.190;2023-07-13T10:23:56;30.30;44.80
3770;DHT22;1900;48.890;9.190;2023-07-13T10:26:32;30.50;45.10
3770;DHT22;1900;48.890;9.190;2023-07-13T10:29:02;30.50;45.10
3770;DHT22;1900;48.890;9.190;2023-07-13T10:31:30;30.50;45.00
3770;DHT22;1900;48.890;9.190;2023-07-13T10:33:56;30.60;45.40
3770;DHT22;1900;48.890;9.190;2023-07-13T10:39:00;30.70;44.90
3770;DHT22;1900;48.890;9.190;2023-07-13T10:41:27;30.70;44.90
3770;DHT22;1900;48.890;9.190;2023-07-13T10:43:56;30.70;44.90
3770;DHT22;1900;48.890;9.190;2023-07-13T10:46:25;30.80;44.80
3770;DHT22;1900;48.890;9.190;2023-07-13T10:48:59;30.80;44.70
3770;DHT22;1900;48.890;9.190;2023-07-13T10:51:27;30.80;44.40
3770;DHT22;1900;48.890;9.190;2023-07-13T10:54:19;30.80;44.30
3770;DHT22;1900;48.890;9.190;2023-07-13T10:56:50;30.80;44.00
3770;DHT22;1900;48.890;9.190;2023-07-13T10:59:20;30.80;44.00
3770;DHT22;1900;48.890;9.190;2023-07-13T11:04:21;30.70;44.00
3770;DHT22;1900;48.890;9.190;2023-07-13T11:06:53;30.70;44.20
3770;DHT22;1900;48.890;9.190;2023-07-13T11:09:38;30.80;44.20
3770;DHT22;1900;48.890;9.190;2023-07-13T11:41:18;31.30;44.00
3770;DHT22;1900;48.890;9.190;2023-07-13T11:43:45;31.40;44.10
3770;DHT22;1900;48.890;9.190;2023-07-13T11:46:25;31.50;44.40
3770;DHT22;1900;48.890;9.190;2023-07-13T11:48:52;31.60;44.00
3770;DHT22;1900;48.890;9.190;2023-07-13T11:51:31;31.70;44.20
3770;DHT22;1900;48.890;9.190;2023-07-13T11:54:01;31.80;43.70
3770;DHT22;1900;48.890;9.190;2023-07-13T11:56:28;31.80;44.00
3770;DHT22;1900;48.890;9.190;2023-07-13T11:58:57;31.90;43.90
3770;DHT22;1900;48.890;9.190;2023-07-13T12:01:29;31.90;43.90
3770;DHT22;1900;48.890;9.190;2023-07-13T12:04:02;31.90;44.00
3770;DHT22;1900;48.890;9.190;2023-07-13T12:06:31;32.00;43.80
3770;DHT22;1900;48.890;9.190;2023-07-13T12:09:01;32.00;43.70
3770;DHT22;1900;48.890;9.190;2023-07-13T12:11:29;32.00;42.90
3770;DHT22;1900;48.890;9.190;2023-07-13T12:13:55;32.00;42.80
3770;DHT22;1900;48.890;9.190;2023-07-13T12:16:28;32.00;42.50
3770;DHT22;1900;48.890;9.190;2023-07-13T12:18:56;32.00;42.30
3770;DHT22;1900;48.890;9.190;2023-07-13T12:21:29;32.00;42.90
3770;DHT22;1900;48.890;9.190;2023-07-13T12:23:56;32.00;42.90
3770;DHT22;1900;48.890;9.190;2023-07-13T12:26:22;32.20;43.20
3770;DHT22;1900;48.890;9.190;2023-07-13T12:29:01;32.20;42.70
3770;DHT22;1900;48.890;9.190;2023-07-13T12:31:44;32.20;41.80
3770;DHT22;1900;48.890;9.190;2023-07-13T12:34:13;32.30;42.50
3770;DHT22;1900;48.890;9.190;2023-07-13T12:36:58;32.30;42.90
3770;DHT22;1900;48.890;9.190;2023-07-13T12:39:34;32.40;43.20
3770;DHT22;1900;48.890;9.190;2023-07-13T12:42:39;32.50;43.80
3770;DHT22;1900;48.890;9.190;2023-07-13T12:45:23;32.80;44.00
3770;DHT22;1900;48.890;9.190;2023-07-13T12:47:53;32.90;43.60
3770;DHT22;1900;48.890;9.190;2023-07-13T12:50:22;33.00;43.30
3770;DHT22;1900;48.890;9.190;2023-07-13T12:52:54;33.10;42.00
3770;DHT22;1900;48.890;9.190;2023-07-13T12:55:21;33.20;43.00
3770;DHT22;1900;48.890;9.190;2023-07-13T12:57:53;33.30;43.60
3770;DHT22;1900;48.890;9.190;2023-07-13T13:00:36;33.40;42.90
3770;DHT22;1900;48.890;9.190;2023-07-13T13:08:25;33.70;42.40
3770;DHT22;1900;48.890;9.190;2023-07-13T13:10:51;33.80;42.70
3770;DHT22;1900;48.890;9.190;2023-07-13T13:13:17;33.80;41.50
3770;DHT22;1900;48.890;9.190;2023-07-13T13:15:43;33.90;42.10
3770;DHT22;1900;48.890;9.190;2023-07-13T13:18:20;33.90;42.20
3770;DHT22;1900;48.890;9.190;2023-07-13T13:20:46;34.00;42.30
3770;DHT22;1900;48.890;9.190;2023-07-13T13:23:20;34.10;42.00
3770;DHT22;1900;48.890;9.190;2023-07-13T13:25:49;34.20;42.20
3770;DHT22;1900;48.890;9.190;2023-07-13T13:28:18;34.20;42.00
3770;DHT22;1900;48.890;9.190;2023-07-13T13:30:46;34.30;42.50
3770;DHT22;1900;48.890;9.190;2023-07-13T13:33:15;34.50;42.90
3770;DHT22;1900;48.890;9.190;2023-07-13T13:35:42;34.60;42.50
3770;DHT22;1900;48.890;9.190;2023-07-13T13:38:11;34.70;42.50
3770;DHT22;1900;48.890;9.190;2023-07-13T13:40:37;34.70;42.00
3770;DHT22;1900;48.890;9.190;2023-07-13T13:43:10;34.70;41.30
3770;DHT22;1900;48.890;9.190;2023-07-13T13:45:39;34.70;40.40
3770;DHT22;1900;48.890;9.190;2023-07-13T13:48:05;34.70;40.30
3770;DHT22;1900;48.890;9.190;2023-07-13T13:50:31;34.70;40.60
3770;DHT22;1900;48.890;9.190;2023-07-13T13:52:57;34.60;40.10
3770;DHT22;1900;48.890;9.190;2023-07-13T13:55:22;34.50;40.50
3770;DHT22;1900;48.890;9.190;2023-07-13T13:57:50;34.60;41.00
3770;DHT22;1900;48.890;9.190;2023-07-13T14:00:16;34.60;40.70
3770;DHT22;1900;48.890;9.190;2023-07-13T14:02:46;34.70;40.50
3770;DHT22;1900;48.890;9.190;2023-07-13T14:05:15;34.70;41.00
3770;DHT22;1900;48.890;9.190;2023-07-13T14:07:43;34.80;41.50
3770;DHT22;1900;48.890;9.190;2023-07-13T14:10:15;34.90;41.70
3770;DHT22;1900;48.890;9.190;2023-07-13T14:12:52;35.10;41.10
3770;DHT22;1900;48.890;9.190;2023-07-13T14:15:25;35.10;40.00
3770;DHT22;1900;48.890;9.190;2023-07-13T14:17:51;35.10;39.50
3770;DHT22;1900;48.890;9.190;2023-07-13T14:20:22;35.10;40.30
3770;DHT22;1900;48.890;9.190;2023-07-13T14:22:49;35.20;40.20
3770;DHT22;1900;48.890;9.190;2023-07-13T14:25:17;35.20;40.30
3770;DHT22;1900;48.890;9.190;2023-07-13T14:27:44;35.20;39.80
3770;DHT22;1900;48.890;9.190;2023-07-13T14:30:17;35.20;40.40
3770;DHT22;1900;48.890;9.190;2023-07-13T14:32:43;35.30;40.10
3770;DHT22;1900;48.890;9.190;2023-07-13T14:35:14;35.30;40.20
3770;DHT22;1900;48.890;9.190;2023-07-13T14:37:41;35.40;40.50
3770;DHT22;1900;48.890;9.190;2023-07-13T14:40:14;35.40;40.30
3770;DHT22;1900;48.890;9.190;2023-07-13T14:42:40;35.40;40.40
3770;DHT22;1900;48.890;9.190;2023-07-13T14:45:12;35.40;40.20
3770;DHT22;1900;48.890;9.190;2023-07-13T14:47:37;35.50;40.30
3770;DHT22;1900;48.890;9.190;2023-07-13T14:50:03;35.50;39.60
3770;DHT22;1900;48.890;9.190;2023-07-13T14:52:30;35.50;39.40
3770;DHT22;1900;48.890;9.190;2023-07-13T14:54:56;35.50;39.90
3770;DHT22;1900;48.890;9.190;2023-07-13T14:57:22;35.50;39.50
3770;DHT22;1900;48.890;9.190;2023-07-13T14:59:48;35.50;40.10
3770;DHT22;1900;48.890;9.190;2023-07-13T15:02:18;35.50;40.10
3770;DHT22;1900;48.890;9.190;2023-07-13T15:04:44;35.60;39.90
3770;DHT22;1900;48.890;9.190;2023-07-13T15:07:11;35.60;40.10
3770;DHT22;1900;48.890;9.190;2023-07-13T15:09:39;35.60;40.00
3770;DHT22;1900;48.890;9.190;2023-07-13T15:12:05;35.60;40.10
3770;DHT22;1900;48.890;9.190;2023-07-13T15:14:31;35.60;39.30
3770;DHT22;1900;48.890;9.190;2023-07-13T15:16:58;35.60;39.00
3770;DHT22;1900;48.890;9.190;2023-07-13T15:19:25;35.60;38.70
3770;DHT22;1900;48.890;9.190;2023-07-13T15:21:52;35.50;38.90
3770;DHT22;1900;48.890;9.190;2023-07-13T15:24:20;35.40;38.80
3770;DHT22;1900;48.890;9.190;2023-07-13T15:26:47;35.30;38.70
3770;DHT22;1900;48.890;9.190;2023-07-13T15:29:15;35.30;38.50
3770;DHT22;1900;48.890;9.190;2023-07-13T15:31:41;35.20;38.60
3770;DHT22;1900;48.890;9.190;2023-07-13T15:34:18;35.10;38.80
3770;DHT22;1900;48.890;9.190;2023-07-13T15:36:45;35.10;38.90
3770;DHT22;1900;48.890;9.190;2023-07-13T15:39:15;35.10;38.90
3770;DHT22;1900;48.890;9.190;2023-07-13T15:41:45;35.00;38.40
3770;DHT22;1900;48.890;9.190;2023-07-13T15:46:50;34.80;38.10
3770;DHT22;1900;48.890;9.190;2023-07-13T15:49:16;34.70;38.10
3770;DHT22;1900;48.890;9.190;2023-07-13T15:51:41;34.60;38.20
3770;DHT22;1900;48.890;9.190;2023-07-13T15:54:13;34.50;37.50
3770;DHT22;1900;48.890;9.190;2023-07-13T15:56:40;34.40;37.00
3770;DHT22;1900;48.890;9.190;2023-07-13T15:59:10;34.20;36.90
3770;DHT22;1900;48.890;9.190;2023-07-13T16:01:38;34.00;36.70
3770;DHT22;1900;48.890;9.190;2023-07-13T16:04:04;33.90;37.20
3770;DHT22;1900;48.890;9.190;2023-07-13T16:06:33;33.80;37.40
3770;DHT22;1900;48.890;9.190;2023-07-13T16:09:02;33.70;37.60
3770;DHT22;1900;48.890;9.190;2023-07-13T16:11:33;33.70;38.30
3770;DHT22;1900;48.890;9.190;2023-07-13T16:13:59;33.60;37.40
3770;DHT22;1900;48.890;9.190;2023-07-13T16:16:33;33.50;37.40
3770;DHT22;1900;48.890;9.190;2023-07-13T16:19:00;33.40;37.20
3770;DHT22;1900;48.890;9.190;2023-07-13T16:21:28;33.30;37.40
3770;DHT22;1900;48.890;9.190;2023-07-13T16:23:55;33.20;37.50
3770;DHT22;1900;48.890;9.190;2023-07-13T16:26:42;33.10;37.60
3770;DHT22;1900;48.890;9.190;2023-07-13T16:29:16;33.10;37.80
3770;DHT22;1900;48.890;9.190;2023-07-13T16:31:58;33.00;37.80
3770;DHT22;1900;48.890;9.190;2023-07-13T16:34:25;33.00;37.70
3770;DHT22;1900;48.890;9.190;2023-07-13T16:36:52;32.90;37.50
3770;DHT22;1900;48.890;9.190;2023-07-13T16:39:17;32.80;37.60
3770;DHT22;1900;48.890;9.190;2023-07-13T16:41:44;32.70;37.40
3770;DHT22;1900;48.890;9.190;2023-07-13T16:44:16;32.60;37.10
3770;DHT22;1900;48.890;9.190;2023-07-13T16:46:44;32.60;37.30
3770;DHT22;1900;48.890;9.190;2023-07-13T16:49:32;32.50;37.50
3770;DHT22;1900;48.890;9.190;2023-07-13T16:51:59;32.40;37.60
3770;DHT22;1900;48.890;9.190;2023-07-13T16:54:34;32.40;37.60
3770;DHT22;1900;48.890;9.190;2023-07-13T16:57:02;32.30;37.60
3770;DHT22;1900;48.890;9.190;2023-07-13T16:59:32;32.30;37.60
3770;DHT22;1900;48.890;9.190;2023-07-13T17:02:00;32.20;37.40
3770;DHT22;1900;48.890;9.190;2023-07-13T17:04:27;32.20;37.40
3770;DHT22;1900;48.890;9.190;2023-07-13T17:06:57;32.10;37.60
3770;DHT22;1900;48.890;9.190;2023-07-13T17:09:23;32.10;37.80
3770;DHT22;1900;48.890;9.190;2023-07-13T17:11:50;32.10;38.00
3770;DHT22;1900;48.890;9.190;2023-07-13T17:14:20;32.10;37.80
3770;DHT22;1900;48.890;9.190;2023-07-13T17:16:53;32.00;37.50
3770;DHT22;1900;48.890;9.190;2023-07-13T17:19:24;32.00;37.60
3770;DHT22;1900;48.890;9.190;2023-07-13T17:21:51;31.90;37.60
3770;DHT22;1900;48.890;9.190;2023-07-13T17:24:27;31.80;37.60
3770;DHT22;1900;48.890;9.190;2023-07-13T17:26:54;31.80;37.50